sensor_id;sensor_type;location;lat;lon;timestamp;P1;durP1;ratioP1;P2;durP2;ratioP2
72590;SDS011;60625;51.212;5.952;2023-04-25T00:00:51;13.00;;;3.10;;
72590;SDS011;60625;51.212;5.952;2023-04-25T00:05:52;12.70;;;3.30;;
72590;SDS011;60625;51.212;5.952;2023-04-25T00:10:53;17.50;;;3.90;;
72590;SDS011;60625;51.212;5.952;2023-04-25T00:15:53;16.50;;;3.60;;
72590;SDS011;60625;51.212;5.952;2023-04-25T00:20:55;16.10;;;4.10;;
72590;SDS011;60625;51.212;5.952;2023-04-25T00:25:55;13.20;;;3.70;;
72590;SDS011;60625;51.212;5.952;2023-04-25T00:30:56;14.90;;;3.70;;
72590;SDS011;60625;51.212;5.952;2023-04-25T00:35:56;10.90;;;3.80;;
72590;SDS011;60625;51.212;5.952;2023-04-25T00:40:57;9.70;;;4.10;;
72590;SDS011;60625;51.212;5.952;2023-04-25T00:45:59;16.10;;;4.00;;
72590;SDS011;60625;51.212;5.952;2023-04-25T00:51:01;18.20;;;4.40;;
72590;SDS011;60625;51.212;5.952;2023-04-25T00:56:01;14.60;;;3.90;;
72590;SDS011;60625;51.212;5.952;2023-04-25T01:01:02;13.90;;;3.70;;
72590;SDS011;60625;51.212;5.952;2023-04-25T01:06:03;17.20;;;4.00;;
72590;SDS011;60625;51.212;5.952;2023-04-25T01:11:04;14.80;;;3.40;;
72590;SDS011;60625;51.212;5.952;2023-04-25T01:16:06;12.60;;;4.10;;
72590;SDS011;60625;51.212;5.952;2023-04-25T01:21:11;13.30;;;3.70;;
72590;SDS011;60625;51.212;5.952;2023-04-25T01:26:13;13.90;;;3.70;;
72590;SDS011;60625;51.212;5.952;2023-04-25T01:31:15;12.60;;;3.60;;
72590;SDS011;60625;51.212;5.952;2023-04-25T01:36:18;14.50;;;4.10;;
72590;SDS011;60625;51.212;5.952;2023-04-25T01:41:19;15.80;;;3.80;;
72590;SDS011;60625;51.212;5.952;2023-04-25T01:46:21;13.00;;;3.40;;
72590;SDS011;60625;51.212;5.952;2023-04-25T01:51:23;14.90;;;4.00;;
72590;SDS011;60625;51.212;5.952;2023-04-25T01:56:23;12.80;;;3.50;;
72590;SDS011;60625;51.212;5.952;2023-04-25T02:01:25;10.50;;;3.00;;
72590;SDS011;60625;51.212;5.952;2023-04-25T02:06:36;13.30;;;3.80;;
72590;SDS011;60625;51.212;5.952;2023-04-25T02:11:36;14.80;;;3.50;;
72590;SDS011;60625;51.212;5.952;2023-04-25T02:16:56;15.60;;;4.30;;
72590;SDS011;60625;51.212;5.952;2023-04-25T02:21:57;13.40;;;4.50;;
72590;SDS011;60625;51.212;5.952;2023-04-25T02:26:58;10.00;;;4.10;;
72590;SDS011;60625;51.212;5.952;2023-04-25T02:31:58;14.70;;;3.60;;
72590;SDS011;60625;51.212;5.952;2023-04-25T02:37:00;22.10;;;4.40;;
72590;SDS011;60625;51.212;5.952;2023-04-25T02:42:00;13.90;;;3.50;;
72590;SDS011;60625;51.212;5.952;2023-04-25T02:47:03;15.60;;;4.00;;
72590;SDS011;60625;51.212;5.952;2023-04-25T02:52:04;14.90;;;3.90;;
72590;SDS011;60625;51.212;5.952;2023-04-25T02:57:05;13.50;;;4.00;;
72590;SDS011;60625;51.212;5.952;2023-04-25T03:02:10;15.90;;;3.80;;
72590;SDS011;60625;51.212;5.952;2023-04-25T03:07:10;9.80;;;2.70;;
72590;SDS011;60625;51.212;5.952;2023-04-25T03:12:11;17.50;;;3.50;;
72590;SDS011;60625;51.212;5.952;2023-04-25T03:17:12;10.50;;;3.40;;
72590;SDS011;60625;51.212;5.952;2023-04-25T03:22:13;16.10;;;3.60;;
72590;SDS011;60625;51.212;5.952;2023-04-25T03:27:14;13.50;;;3.10;;
72590;SDS011;60625;51.212;5.952;2023-04-25T03:32:14;17.70;;;3.70;;
72590;SDS011;60625;51.212;5.952;2023-04-25T03:37:15;12.80;;;3.00;;
72590;SDS011;60625;51.212;5.952;2023-04-25T03:42:16;14.20;;;3.20;;
72590;SDS011;60625;51.212;5.952;2023-04-25T03:47:18;16.40;;;3.80;;
72590;SDS011;60625;51.212;5.952;2023-04-25T03:52:20;15.00;;;3.80;;
72590;SDS011;60625;51.212;5.952;2023-04-25T03:57:21;13.10;;;3.60;;
72590;SDS011;60625;51.212;5.952;2023-04-25T04:02:22;11.60;;;3.10;;
72590;SDS011;60625;51.212;5.952;2023-04-25T04:07:23;13.70;;;3.50;;
72590;SDS011;60625;51.212;5.952;2023-04-25T04:12:27;8.00;;;2.30;;
72590;SDS011;60625;51.212;5.952;2023-04-25T04:17:28;17.20;;;3.80;;
72590;SDS011;60625;51.212;5.952;2023-04-25T04:22:29;14.60;;;3.70;;
72590;SDS011;60625;51.212;5.952;2023-04-25T04:27:33;16.40;;;4.20;;
72590;SDS011;60625;51.212;5.952;2023-04-25T04:32:50;10.90;;;3.20;;
72590;SDS011;60625;51.212;5.952;2023-04-25T04:37:51;12.90;;;3.10;;
72590;SDS011;60625;51.212;5.952;2023-04-25T04:42:53;16.30;;;3.40;;
72590;SDS011;60625;51.212;5.952;2023-04-25T04:48:02;12.60;;;3.00;;
72590;SDS011;60625;51.212;5.952;2023-04-25T04:53:29;14.60;;;3.70;;
72590;SDS011;60625;51.212;5.952;2023-04-25T04:58:48;14.10;;;3.10;;
72590;SDS011;60625;51.212;5.952;2023-04-25T05:03:59;16.30;;;4.10;;
72590;SDS011;60625;51.212;5.952;2023-04-25T05:09:36;16.10;;;3.70;;
72590;SDS011;60625;51.212;5.952;2023-04-25T05:14:45;14.40;;;3.80;;
72590;SDS011;60625;51.212;5.952;2023-04-25T05:20:06;17.30;;;3.80;;
72590;SDS011;60625;51.212;5.952;2023-04-25T05:25:36;12.20;;;2.80;;
72590;SDS011;60625;51.212;5.952;2023-04-25T05:31:03;17.10;;;3.70;;
72590;SDS011;60625;51.212;5.952;2023-04-25T05:36:19;17.10;;;3.20;;
72590;SDS011;60625;51.212;5.952;2023-04-25T05:41:20;13.80;;;3.60;;
72590;SDS011;60625;51.212;5.952;2023-04-25T05:46:42;19.30;;;3.70;;
72590;SDS011;60625;51.212;5.952;2023-04-25T05:51:52;9.80;;;3.40;;
72590;SDS011;60625;51.212;5.952;2023-04-25T05:57:19;16.10;;;3.60;;
72590;SDS011;60625;51.212;5.952;2023-04-25T06:02:24;12.80;;;2.90;;
72590;SDS011;60625;51.212;5.952;2023-04-25T06:07:25;11.40;;;4.40;;
72590;SDS011;60625;51.212;5.952;2023-04-25T06:12:26;15.50;;;3.30;;
72590;SDS011;60625;51.212;5.952;2023-04-25T06:17:27;13.40;;;3.30;;
72590;SDS011;60625;51.212;5.952;2023-04-25T06:22:27;12.10;;;3.10;;
72590;SDS011;60625;51.212;5.952;2023-04-25T06:27:28;15.70;;;2.80;;
72590;SDS011;60625;51.212;5.952;2023-04-25T06:32:28;12.60;;;2.90;;
72590;SDS011;60625;51.212;5.952;2023-04-25T06:37:32;16.20;;;3.30;;
72590;SDS011;60625;51.212;5.952;2023-04-25T06:42:32;9.70;;;2.80;;
72590;SDS011;60625;51.212;5.952;2023-04-25T06:47:33;11.30;;;2.20;;
72590;SDS011;60625;51.212;5.952;2023-04-25T06:52:36;21.90;;;3.20;;
72590;SDS011;60625;51.212;5.952;2023-04-25T06:57:37;14.30;;;3.50;;
72590;SDS011;60625;51.212;5.952;2023-04-25T07:02:58;12.90;;;2.70;;
72590;SDS011;60625;51.212;5.952;2023-04-25T07:07:59;12.20;;;2.50;;
72590;SDS011;60625;51.212;5.952;2023-04-25T07:13:01;17.80;;;2.70;;
72590;SDS011;60625;51.212;5.952;2023-04-25T07:18:02;17.60;;;2.70;;
72590;SDS011;60625;51.212;5.952;2023-04-25T07:23:03;8.10;;;2.20;;
72590;SDS011;60625;51.212;5.952;2023-04-25T07:28:04;10.60;;;2.20;;
72590;SDS011;60625;51.212;5.952;2023-04-25T07:33:05;10.90;;;2.20;;
72590;SDS011;60625;51.212;5.952;2023-04-25T07:38:06;15.10;;;2.20;;
72590;SDS011;60625;51.212;5.952;2023-04-25T07:43:07;10.30;;;2.20;;
72590;SDS011;60625;51.212;5.952;2023-04-25T07:48:22;9.40;;;1.70;;
72590;SDS011;60625;51.212;5.952;2023-04-25T07:53:23;7.70;;;1.60;;
72590;SDS011;60625;51.212;5.952;2023-04-25T07:58:32;9.70;;;1.60;;
72590;SDS011;60625;51.212;5.952;2023-04-25T08:03:34;10.50;;;2.00;;
72590;SDS011;60625;51.212;5.952;2023-04-25T08:08:35;12.80;;;1.40;;
72590;SDS011;60625;51.212;5.952;2023-04-25T08:13:36;8.70;;;2.10;;
72590;SDS011;60625;51.212;5.952;2023-04-25T08:18:37;10.50;;;1.90;;
72590;SDS011;60625;51.212;5.952;2023-04-25T08:23:38;7.30;;;1.40;;
72590;SDS011;60625;51.212;5.952;2023-04-25T08:28:46;12.10;;;2.10;;
72590;SDS011;60625;51.212;5.952;2023-04-25T08:33:47;9.80;;;1.80;;
72590;SDS011;60625;51.212;5.952;2023-04-25T08:38:55;8.40;;;1.70;;
72590;SDS011;60625;51.212;5.952;2023-04-25T08:43:56;6.90;;;1.50;;
72590;SDS011;60625;51.212;5.952;2023-04-25T08:49:01;9.00;;;1.70;;
72590;SDS011;60625;51.212;5.952;2023-04-25T08:54:11;6.50;;;1.50;;
72590;SDS011;60625;51.212;5.952;2023-04-25T08:59:12;11.10;;;1.70;;
72590;SDS011;60625;51.212;5.952;2023-04-25T09:04:14;8.70;;;1.40;;
72590;SDS011;60625;51.212;5.952;2023-04-25T09:09:15;8.40;;;1.30;;
72590;SDS011;60625;51.212;5.952;2023-04-25T09:14:18;9.80;;;1.40;;
72590;SDS011;60625;51.212;5.952;2023-04-25T09:19:39;7.60;;;1.40;;
72590;SDS011;60625;51.212;5.952;2023-04-25T09:24:44;7.30;;;1.40;;
72590;SDS011;60625;51.212;5.952;2023-04-25T09:29:57;11.10;;;1.90;;
72590;SDS011;60625;51.212;5.952;2023-04-25T09:35:02;6.60;;;1.20;;
72590;SDS011;60625;51.212;5.952;2023-04-25T09:40:06;8.60;;;1.30;;
72590;SDS011;60625;51.212;5.952;2023-04-25T09:45:12;7.20;;;1.00;;
72590;SDS011;60625;51.212;5.952;2023-04-25T09:50:17;7.80;;;1.20;;
72590;SDS011;60625;51.212;5.952;2023-04-25T09:55:23;5.20;;;0.90;;
72590;SDS011;60625;51.212;5.952;2023-04-25T10:00:24;5.10;;;1.10;;
72590;SDS011;60625;51.212;5.952;2023-04-25T10:05:25;6.70;;;1.10;;
72590;SDS011;60625;51.212;5.952;2023-04-25T10:10:29;10.10;;;1.50;;
72590;SDS011;60625;51.212;5.952;2023-04-25T10:15:35;13.30;;;1.50;;
72590;SDS011;60625;51.212;5.952;2023-04-25T10:20:38;10.40;;;1.40;;
72590;SDS011;60625;51.212;5.952;2023-04-25T10:25:40;8.00;;;1.10;;
72590;SDS011;60625;51.212;5.952;2023-04-25T10:31:03;5.90;;;1.20;;
72590;SDS011;60625;51.212;5.952;2023-04-25T10:36:12;8.00;;;1.10;;
72590;SDS011;60625;51.212;5.952;2023-04-25T10:41:14;3.20;;;0.60;;
72590;SDS011;60625;51.212;5.952;2023-04-25T10:46:16;9.10;;;1.30;;
72590;SDS011;60625;51.212;5.952;2023-04-25T10:51:28;4.50;;;0.80;;
72590;SDS011;60625;51.212;5.952;2023-04-25T10:56:32;5.10;;;1.10;;
72590;SDS011;60625;51.212;5.952;2023-04-25T11:01:53;9.50;;;1.20;;
72590;SDS011;60625;51.212;5.952;2023-04-25T11:07:19;6.60;;;1.40;;
72590;SDS011;60625;51.212;5.952;2023-04-25T11:12:24;9.60;;;1.30;;
72590;SDS011;60625;51.212;5.952;2023-04-25T11:17:25;6.70;;;1.20;;
72590;SDS011;60625;51.212;5.952;2023-04-25T11:22:27;7.70;;;1.40;;
72590;SDS011;60625;51.212;5.952;2023-04-25T11:27:28;6.90;;;1.30;;
72590;SDS011;60625;51.212;5.952;2023-04-25T11:32:28;7.60;;;1.20;;
72590;SDS011;60625;51.212;5.952;2023-04-25T11:37:29;6.60;;;1.20;;
72590;SDS011;60625;51.212;5.952;2023-04-25T11:42:30;5.10;;;1.20;;
72590;SDS011;60625;51.212;5.952;2023-04-25T11:47:30;7.40;;;1.40;;
72590;SDS011;60625;51.212;5.952;2023-04-25T11:52:42;6.20;;;0.90;;
72590;SDS011;60625;51.212;5.952;2023-04-25T11:57:47;3.30;;;0.80;;
72590;SDS011;60625;51.212;5.952;2023-04-25T12:02:54;6.00;;;1.00;;
72590;SDS011;60625;51.212;5.952;2023-04-25T12:07:56;5.30;;;0.70;;
72590;SDS011;60625;51.212;5.952;2023-04-25T12:12:56;5.90;;;1.00;;
72590;SDS011;60625;51.212;5.952;2023-04-25T12:17:57;3.60;;;0.80;;
72590;SDS011;60625;51.212;5.952;2023-04-25T12:22:57;3.50;;;1.00;;
72590;SDS011;60625;51.212;5.952;2023-04-25T12:28:16;2.90;;;0.70;;
72590;SDS011;60625;51.212;5.952;2023-04-25T12:33:19;3.80;;;1.00;;
72590;SDS011;60625;51.212;5.952;2023-04-25T12:43:22;3.60;;;0.80;;
72590;SDS011;60625;51.212;5.952;2023-04-25T12:48:23;5.20;;;0.90;;
72590;SDS011;60625;51.212;5.952;2023-04-25T12:53:24;6.60;;;0.80;;
72590;SDS011;60625;51.212;5.952;2023-04-25T12:58:24;6.50;;;2.00;;
72590;SDS011;60625;51.212;5.952;2023-04-25T13:03:26;5.70;;;1.00;;
72590;SDS011;60625;51.212;5.952;2023-04-25T13:08:26;4.40;;;0.80;;
72590;SDS011;60625;51.212;5.952;2023-04-25T13:13:27;4.20;;;0.70;;
72590;SDS011;60625;51.212;5.952;2023-04-25T13:18:28;7.90;;;0.90;;
72590;SDS011;60625;51.212;5.952;2023-04-25T13:23:30;5.70;;;1.00;;
72590;SDS011;60625;51.212;5.952;2023-04-25T13:28:30;5.20;;;0.90;;
72590;SDS011;60625;51.212;5.952;2023-04-25T13:33:31;3.50;;;0.80;;
72590;SDS011;60625;51.212;5.952;2023-04-25T13:38:32;4.20;;;0.80;;
72590;SDS011;60625;51.212;5.952;2023-04-25T13:43:32;3.10;;;0.90;;
72590;SDS011;60625;51.212;5.952;2023-04-25T13:48:34;5.60;;;0.80;;
72590;SDS011;60625;51.212;5.952;2023-04-25T13:53:35;5.30;;;0.70;;
72590;SDS011;60625;51.212;5.952;2023-04-25T13:58:35;3.50;;;0.70;;
72590;SDS011;60625;51.212;5.952;2023-04-25T14:03:36;4.80;;;0.70;;
72590;SDS011;60625;51.212;5.952;2023-04-25T14:08:36;3.70;;;0.90;;
72590;SDS011;60625;51.212;5.952;2023-04-25T14:13:37;3.10;;;0.90;;
72590;SDS011;60625;51.212;5.952;2023-04-25T14:18:37;4.50;;;0.70;;
72590;SDS011;60625;51.212;5.952;2023-04-25T14:23:37;3.40;;;0.70;;
72590;SDS011;60625;51.212;5.952;2023-04-25T14:28:38;3.70;;;0.90;;
72590;SDS011;60625;51.212;5.952;2023-04-25T14:33:39;6.00;;;0.90;;
72590;SDS011;60625;51.212;5.952;2023-04-25T14:38:42;7.90;;;0.80;;
72590;SDS011;60625;51.212;5.952;2023-04-25T14:43:43;5.80;;;0.90;;
72590;SDS011;60625;51.212;5.952;2023-04-25T14:48:45;4.70;;;0.60;;
72590;SDS011;60625;51.212;5.952;2023-04-25T14:53:45;5.70;;;0.70;;
72590;SDS011;60625;51.212;5.952;2023-04-25T14:58:46;3.30;;;0.60;;
72590;SDS011;60625;51.212;5.952;2023-04-25T15:03:47;3.60;;;0.60;;
72590;SDS011;60625;51.212;5.952;2023-04-25T15:08:48;5.90;;;0.70;;
72590;SDS011;60625;51.212;5.952;2023-04-25T15:13:48;4.50;;;0.90;;
72590;SDS011;60625;51.212;5.952;2023-04-25T15:18:49;3.60;;;0.80;;
72590;SDS011;60625;51.212;5.952;2023-04-25T15:23:50;3.90;;;0.70;;
72590;SDS011;60625;51.212;5.952;2023-04-25T15:28:51;3.20;;;0.40;;
72590;SDS011;60625;51.212;5.952;2023-04-25T15:33:53;3.80;;;1.00;;
72590;SDS011;60625;51.212;5.952;2023-04-25T15:38:53;5.70;;;0.90;;
72590;SDS011;60625;51.212;5.952;2023-04-25T15:43:54;4.20;;;1.30;;
72590;SDS011;60625;51.212;5.952;2023-04-25T15:48:54;6.20;;;1.30;;
72590;SDS011;60625;51.212;5.952;2023-04-25T15:53:55;5.10;;;1.90;;
72590;SDS011;60625;51.212;5.952;2023-04-25T15:58:56;6.20;;;1.10;;
72590;SDS011;60625;51.212;5.952;2023-04-25T16:03:57;6.90;;;1.20;;
72590;SDS011;60625;51.212;5.952;2023-04-25T16:08:57;3.70;;;0.60;;
72590;SDS011;60625;51.212;5.952;2023-04-25T16:13:58;6.10;;;1.00;;
72590;SDS011;60625;51.212;5.952;2023-04-25T16:18:59;7.70;;;1.70;;
72590;SDS011;60625;51.212;5.952;2023-04-25T16:23:59;4.70;;;0.80;;
72590;SDS011;60625;51.212;5.952;2023-04-25T16:29:02;5.70;;;0.90;;
72590;SDS011;60625;51.212;5.952;2023-04-25T16:34:03;4.60;;;1.00;;
72590;SDS011;60625;51.212;5.952;2023-04-25T16:39:04;4.80;;;1.00;;
72590;SDS011;60625;51.212;5.952;2023-04-25T16:44:07;4.80;;;1.20;;
72590;SDS011;60625;51.212;5.952;2023-04-25T16:49:08;5.70;;;1.30;;
72590;SDS011;60625;51.212;5.952;2023-04-25T16:54:08;5.30;;;1.20;;
72590;SDS011;60625;51.212;5.952;2023-04-25T16:59:09;9.00;;;1.10;;
72590;SDS011;60625;51.212;5.952;2023-04-25T17:04:10;5.30;;;1.10;;
72590;SDS011;60625;51.212;5.952;2023-04-25T17:09:11;3.60;;;0.70;;
72590;SDS011;60625;51.212;5.952;2023-04-25T17:14:11;5.90;;;0.90;;
72590;SDS011;60625;51.212;5.952;2023-04-25T17:19:11;5.50;;;1.00;;
72590;SDS011;60625;51.212;5.952;2023-04-25T17:24:12;5.20;;;0.90;;
72590;SDS011;60625;51.212;5.952;2023-04-25T17:29:14;5.70;;;1.30;;
72590;SDS011;60625;51.212;5.952;2023-04-25T17:34:15;8.00;;;2.50;;
72590;SDS011;60625;51.212;5.952;2023-04-25T17:39:17;5.00;;;1.00;;
72590;SDS011;60625;51.212;5.952;2023-04-25T17:44:19;5.60;;;1.60;;
72590;SDS011;60625;51.212;5.952;2023-04-25T17:49:20;3.80;;;0.80;;
72590;SDS011;60625;51.212;5.952;2023-04-25T17:54:20;4.40;;;0.90;;
72590;SDS011;60625;51.212;5.952;2023-04-25T17:59:21;5.10;;;0.70;;
72590;SDS011;60625;51.212;5.952;2023-04-25T18:04:22;3.70;;;0.50;;
72590;SDS011;60625;51.212;5.952;2023-04-25T18:09:22;3.80;;;0.80;;
72590;SDS011;60625;51.212;5.952;2023-04-25T18:14:24;4.30;;;1.00;;
72590;SDS011;60625;51.212;5.952;2023-04-25T18:19:25;6.70;;;1.70;;
72590;SDS011;60625;51.212;5.952;2023-04-25T18:24:25;5.90;;;1.10;;
72590;SDS011;60625;51.212;5.952;2023-04-25T18:29:26;3.60;;;0.90;;
72590;SDS011;60625;51.212;5.952;2023-04-25T18:34:27;4.60;;;1.00;;
72590;SDS011;60625;51.212;5.952;2023-04-25T18:39:28;4.30;;;0.90;;
72590;SDS011;60625;51.212;5.952;2023-04-25T18:44:28;5.20;;;0.80;;
72590;SDS011;60625;51.212;5.952;2023-04-25T18:49:30;6.10;;;1.00;;
72590;SDS011;60625;51.212;5.952;2023-04-25T18:54:31;4.20;;;1.20;;
72590;SDS011;60625;51.212;5.952;2023-04-25T18:59:32;7.50;;;1.10;;
72590;SDS011;60625;51.212;5.952;2023-04-25T19:04:33;3.90;;;1.40;;
72590;SDS011;60625;51.212;5.952;2023-04-25T19:09:33;4.50;;;0.80;;
72590;SDS011;60625;51.212;5.952;2023-04-25T19:14:34;4.10;;;0.70;;
72590;SDS011;60625;51.212;5.952;2023-04-25T19:19:35;4.80;;;0.80;;
72590;SDS011;60625;51.212;5.952;2023-04-25T19:24:35;5.80;;;1.50;;
72590;SDS011;60625;51.212;5.952;2023-04-25T19:29:36;5.80;;;1.30;;
72590;SDS011;60625;51.212;5.952;2023-04-25T19:34:38;5.70;;;1.80;;
72590;SDS011;60625;51.212;5.952;2023-04-25T19:39:39;7.00;;;1.40;;
72590;SDS011;60625;51.212;5.952;2023-04-25T19:44:40;7.00;;;1.20;;
72590;SDS011;60625;51.212;5.952;2023-04-25T19:49:40;7.00;;;0.90;;
72590;SDS011;60625;51.212;5.952;2023-04-25T19:54:41;8.70;;;1.10;;
72590;SDS011;60625;51.212;5.952;2023-04-25T19:59:41;4.90;;;1.00;;
72590;SDS011;60625;51.212;5.952;2023-04-25T20:04:47;6.90;;;1.10;;
72590;SDS011;60625;51.212;5.952;2023-04-25T20:09:48;8.20;;;1.30;;
72590;SDS011;60625;51.212;5.952;2023-04-25T20:14:49;6.50;;;1.80;;
72590;SDS011;60625;51.212;5.952;2023-04-25T20:19:49;5.50;;;1.40;;
72590;SDS011;60625;51.212;5.952;2023-04-25T20:24:50;8.60;;;1.70;;
72590;SDS011;60625;51.212;5.952;2023-04-25T20:29:51;5.70;;;1.10;;
72590;SDS011;60625;51.212;5.952;2023-04-25T20:34:52;5.50;;;1.40;;
72590;SDS011;60625;51.212;5.952;2023-04-25T20:39:53;11.20;;;1.70;;
72590;SDS011;60625;51.212;5.952;2023-04-25T20:44:53;11.10;;;1.90;;
72590;SDS011;60625;51.212;5.952;2023-04-25T20:49:54;7.00;;;1.60;;
72590;SDS011;60625;51.212;5.952;2023-04-25T20:54:54;5.40;;;1.50;;
72590;SDS011;60625;51.212;5.952;2023-04-25T20:59:55;8.50;;;1.80;;
72590;SDS011;60625;51.212;5.952;2023-04-25T21:04:56;6.00;;;1.70;;
72590;SDS011;60625;51.212;5.952;2023-04-25T21:09:57;7.40;;;1.80;;
72590;SDS011;60625;51.212;5.952;2023-04-25T21:14:57;7.40;;;1.70;;
72590;SDS011;60625;51.212;5.952;2023-04-25T21:19:59;6.00;;;1.60;;
72590;SDS011;60625;51.212;5.952;2023-04-25T21:24:59;6.30;;;1.80;;
72590;SDS011;60625;51.212;5.952;2023-04-25T21:30:06;8.30;;;1.60;;
72590;SDS011;60625;51.212;5.952;2023-04-25T21:35:08;6.90;;;1.80;;
72590;SDS011;60625;51.212;5.952;2023-04-25T21:40:09;14.90;;;1.90;;
72590;SDS011;60625;51.212;5.952;2023-04-25T21:45:10;6.50;;;1.80;;
72590;SDS011;60625;51.212;5.952;2023-04-25T21:50:12;9.90;;;1.60;;
72590;SDS011;60625;51.212;5.952;2023-04-25T21:55:14;4.50;;;1.50;;
72590;SDS011;60625;51.212;5.952;2023-04-25T22:00:15;7.30;;;1.70;;
72590;SDS011;60625;51.212;5.952;2023-04-25T22:05:21;10.70;;;1.70;;
72590;SDS011;60625;51.212;5.952;2023-04-25T22:10:23;8.20;;;1.60;;
72590;SDS011;60625;51.212;5.952;2023-04-25T22:15:24;6.30;;;1.80;;
72590;SDS011;60625;51.212;5.952;2023-04-25T22:20:25;9.60;;;1.80;;
72590;SDS011;60625;51.212;5.952;2023-04-25T22:25:27;9.90;;;2.10;;
72590;SDS011;60625;51.212;5.952;2023-04-25T22:30:27;7.10;;;1.80;;
72590;SDS011;60625;51.212;5.952;2023-04-25T22:35:28;6.50;;;1.90;;
72590;SDS011;60625;51.212;5.952;2023-04-25T22:40:29;7.00;;;1.80;;
72590;SDS011;60625;51.212;5.952;2023-04-25T22:45:29;11.20;;;2.30;;
72590;SDS011;60625;51.212;5.952;2023-04-25T22:50:31;8.50;;;2.00;;
72590;SDS011;60625;51.212;5.952;2023-04-25T22:55:32;8.90;;;2.00;;
72590;SDS011;60625;51.212;5.952;2023-04-25T23:00:33;7.50;;;2.00;;
72590;SDS011;60625;51.212;5.952;2023-04-25T23:05:34;6.00;;;2.10;;
72590;SDS011;60625;51.212;5.952;2023-04-25T23:10:35;7.10;;;2.40;;
72590;SDS011;60625;51.212;5.952;2023-04-25T23:15:36;10.30;;;1.90;;
72590;SDS011;60625;51.212;5.952;2023-04-25T23:20:37;13.80;;;2.10;;
72590;SDS011;60625;51.212;5.952;2023-04-25T23:25:37;6.70;;;2.20;;
72590;SDS011;60625;51.212;5.952;2023-04-25T23:30:40;7.10;;;1.90;;
72590;SDS011;60625;51.212;5.952;2023-04-25T23:35:41;8.20;;;1.90;;
72590;SDS011;60625;51.212;5.952;2023-04-25T23:40:41;5.80;;;1.70;;
72590;SDS011;60625;51.212;5.952;2023-04-25T23:45:42;10.20;;;1.80;;
72590;SDS011;60625;51.212;5.952;2023-04-25T23:50:45;6.10;;;1.90;;
72590;SDS011;60625;51.212;5.952;2023-04-25T23:55:46;7.00;;;1.90;;
